Albany, New York
Traffic Map
Current Weather Conditions
Albany, New York
Overcast
Overcast
11°
Feels Like: 11°
Wind Chill: 11° Ceiling: 4000
Heat Index: 11° Visibility: 10mi
Dew Point: Wind: 5mph
Humidity: 59% Direction: 60° (ENE)
Pressure: 30.16in Gusts: 0mph
Raw Report DataKALB 302251Z 06004KT 10SM BKN040 OVC055 11/03 A3016 RMK AO2 SLP215 T01060028
Traffic Incident Summary
Active as of:
Severity:
Category:
InformationThere was an issue retrieving the traffic information for this location. Please try a different location or try again shortly.
Advertisements
Track Severe Weather on mobile